createdAt,value
2023-01-13T00:00:46.680Z,54241.22
2023-01-13T00:03:13.034Z,54243.28
2023-01-13T00:05:39.319Z,54237.09
2023-01-13T00:08:06.232Z,54261.91
2023-01-13T00:10:33.356Z,54263.97
2023-01-13T00:12:59.644Z,54259.84
2023-01-13T00:15:25.944Z,54251.56
2023-01-13T00:17:52.383Z,54237.09
2023-01-13T00:20:18.769Z,54232.94
2023-01-13T00:22:45.063Z,54226.75
2023-01-13T00:25:11.712Z,54224.69
2023-01-13T00:27:38.236Z,54208.13
2023-01-13T00:30:05.533Z,54214.34
2023-01-13T00:32:31.857Z,54206.06
2023-01-13T00:34:58.901Z,54214.34
2023-01-13T00:37:25.598Z,54235.03
2023-01-13T00:39:52.290Z,54199.88
2023-01-13T00:42:37.385Z,54191.59
2023-01-13T00:45:03.985Z,54191.59
2023-01-13T00:47:30.401Z,54210.19
2023-01-13T00:49:56.721Z,54187.47
2023-01-13T00:52:23.063Z,54193.66
2023-01-13T00:54:49.344Z,54189.53
2023-01-13T00:57:15.698Z,54146.09
2023-01-13T00:59:42.043Z,54189.53
2023-01-13T01:02:08.446Z,54168.84
2023-01-13T01:04:34.851Z,54158.50
2023-01-13T01:07:01.358Z,54185.38
2023-01-13T01:09:32.664Z,54125.44
2023-01-13T01:11:59.793Z,54166.78
2023-01-13T01:14:27.078Z,54123.34
2023-01-13T01:16:53.603Z,54162.66
2023-01-13T01:19:20.364Z,54162.66
2023-01-13T01:21:46.649Z,54108.88
2023-01-13T01:24:12.973Z,54148.16
2023-01-13T01:26:39.520Z,54144.03
2023-01-13T01:29:05.860Z,54125.44
2023-01-13T01:31:32.778Z,54152.31
2023-01-13T01:33:59.786Z,54137.84
2023-01-13T01:36:26.806Z,54121.28
2023-01-13T01:38:53.133Z,54166.78
2023-01-13T01:41:20.447Z,54123.34
2023-01-13T01:44:05.512Z,54117.16
2023-01-13T01:46:33.127Z,54113.03
2023-01-13T01:49:05.656Z,54106.81
2023-01-13T01:51:33.116Z,54133.69
2023-01-13T01:53:59.403Z,54121.28
2023-01-13T01:56:25.701Z,54137.84
2023-01-13T01:58:52.118Z,54123.34
2023-01-13T02:01:18.824Z,54110.94
2023-01-13T02:03:47.179Z,54127.50
2023-01-13T02:06:13.758Z,54131.63
2023-01-13T02:08:40.243Z,54123.34
2023-01-13T02:11:26.826Z,54119.22
2023-01-13T02:13:53.126Z,54150.25
2023-01-13T02:16:21.609Z,54154.38
2023-01-13T02:18:47.972Z,54088.19
2023-01-13T02:21:28.114Z,54094.41
2023-01-13T02:24:13.336Z,54137.84
2023-01-13T02:26:39.749Z,54133.69
2023-01-13T02:29:27.917Z,54108.88
2023-01-13T02:31:54.510Z,54121.28
2023-01-13T02:34:23.070Z,54137.84
2023-01-13T02:36:52.452Z,54108.88
2023-01-13T02:39:21.816Z,54146.09
2023-01-13T02:42:06.743Z,54108.88
2023-01-13T02:44:35.439Z,54100.63
2023-01-13T02:47:25.018Z,54084.06
2023-01-13T02:49:58.566Z,54102.69
2023-01-13T02:52:43.338Z,54084.06
2023-01-13T02:55:11.488Z,54096.47
2023-01-13T02:57:37.775Z,54102.69
2023-01-13T03:00:04.920Z,54057.19
2023-01-13T03:02:31.290Z,54073.72
2023-01-13T03:04:58.434Z,54102.69
2023-01-13T03:07:32.914Z,54110.94
2023-01-13T03:10:16.810Z,54075.78
2023-01-13T03:12:46.138Z,54065.47
2023-01-13T03:15:29.178Z,54067.53
2023-01-13T03:17:56.151Z,54073.72
2023-01-13T03:20:24.260Z,54075.78
2023-01-13T03:22:52.206Z,54063.38
2023-01-13T03:25:21.950Z,54088.19
2023-01-13T03:27:50.379Z,54075.78
2023-01-13T03:30:18.132Z,54102.69
2023-01-13T03:32:45.613Z,54065.47
2023-01-13T03:35:14.170Z,54077.88
2023-01-13T03:37:54.999Z,54024.09
2023-01-13T03:40:22.501Z,54040.66
2023-01-13T03:43:09.475Z,54073.72
2023-01-13T03:45:36.307Z,54086.13
2023-01-13T03:48:03.465Z,54063.38
2023-01-13T03:50:34.191Z,54067.53
2023-01-13T03:53:06.602Z,54075.78
2023-01-13T03:55:34.257Z,54053.06
2023-01-13T03:58:02.438Z,54096.47
2023-01-13T04:00:33.959Z,54084.06
2023-01-13T04:03:13.565Z,54082.00
2023-01-13T04:05:40.970Z,54075.78
2023-01-13T04:08:10.329Z,54063.38
2023-01-13T04:10:59.943Z,54098.53
2023-01-13T04:13:27.299Z,54067.53
2023-01-13T04:15:53.625Z,54071.66
2023-01-13T04:18:27.374Z,54073.72
2023-01-13T04:20:54.647Z,54090.28
2023-01-13T04:23:21.220Z,54055.13
2023-01-13T04:25:47.612Z,54075.78
2023-01-13T04:28:14.205Z,54067.53
2023-01-13T04:30:41.469Z,54036.50
2023-01-13T04:33:07.993Z,54067.53
2023-01-13T04:35:34.398Z,54053.06
2023-01-13T04:38:01.533Z,54092.34
2023-01-13T04:40:27.843Z,54079.94
2023-01-13T04:42:54.143Z,54059.25
2023-01-13T04:45:20.454Z,54079.94
2023-01-13T04:47:47.478Z,54077.88
2023-01-13T04:50:14.030Z,54082.00
2023-01-13T04:52:40.430Z,54061.31
2023-01-13T04:55:07.246Z,54088.19
2023-01-13T04:57:34.890Z,54096.47
2023-01-13T05:00:01.946Z,54077.88
2023-01-13T05:02:28.281Z,54065.47
2023-01-13T05:04:54.621Z,54084.06
2023-01-13T05:07:20.906Z,54119.22
2023-01-13T05:09:47.250Z,54084.06
2023-01-13T05:12:32.369Z,54053.06
2023-01-13T05:15:17.675Z,54077.88
2023-01-13T05:17:44.029Z,54092.34
2023-01-13T05:20:10.791Z,54075.78
2023-01-13T05:22:55.809Z,54086.13
2023-01-13T05:25:22.222Z,54082.00
2023-01-13T05:27:48.991Z,54071.66
2023-01-13T05:30:15.516Z,54063.38
2023-01-13T05:32:41.905Z,54055.13
2023-01-13T05:35:08.520Z,54034.44
2023-01-13T05:37:34.942Z,54042.72
2023-01-13T05:40:19.908Z,54059.25
2023-01-13T05:43:04.678Z,54075.78
2023-01-13T05:45:31.474Z,54061.31
2023-01-13T05:47:57.924Z,54065.47
2023-01-13T05:50:24.443Z,54082.00
2023-01-13T05:52:50.743Z,54069.59
2023-01-13T05:55:17.051Z,54071.66
2023-01-13T05:57:43.369Z,54050.97
2023-01-13T06:00:10.021Z,54065.47
2023-01-13T06:02:36.371Z,54059.25
2023-01-13T06:05:02.799Z,54096.47
2023-01-13T06:07:29.082Z,54044.78
2023-01-13T06:09:55.377Z,54063.38
2023-01-13T06:12:21.731Z,54084.06
2023-01-13T06:14:48.015Z,54063.38
2023-01-13T06:17:14.927Z,54059.25
2023-01-13T06:19:41.571Z,54069.59
2023-01-13T06:22:11.032Z,54042.72
2023-01-13T06:24:37.427Z,54065.47
2023-01-13T06:27:04.843Z,54042.72
2023-01-13T06:29:31.136Z,54050.97
2023-01-13T06:31:57.453Z,54065.47
2023-01-13T06:34:23.802Z,54053.06
2023-01-13T06:36:50.747Z,54040.66
2023-01-13T06:39:18.010Z,54044.78
2023-01-13T06:42:03.135Z,54036.50
2023-01-13T06:44:29.495Z,54075.78
2023-01-13T06:46:55.829Z,54061.31
2023-01-13T06:49:22.139Z,54046.84
2023-01-13T06:51:48.649Z,54038.59
2023-01-13T06:54:14.978Z,54042.72
2023-01-13T06:56:41.517Z,54034.44
2023-01-13T06:59:07.865Z,54036.50
2023-01-13T07:01:34.277Z,54092.34
2023-01-13T07:04:00.676Z,54067.53
2023-01-13T07:06:26.961Z,54059.25
2023-01-13T07:08:53.238Z,54024.09
2023-01-13T07:11:19.549Z,54061.31
2023-01-13T07:14:04.597Z,54034.44
2023-01-13T07:16:30.978Z,54036.50
2023-01-13T07:18:57.296Z,54073.72
2023-01-13T07:21:23.610Z,54053.06
2023-01-13T07:23:49.982Z,54088.19
2023-01-13T07:26:16.326Z,54061.31
2023-01-13T07:28:42.658Z,54034.44
2023-01-13T07:31:16.454Z,54059.25
2023-01-13T07:33:42.960Z,54032.38
2023-01-13T07:36:09.424Z,54024.09
2023-01-13T07:38:35.787Z,54067.53
2023-01-13T07:41:22.056Z,54071.66
2023-01-13T07:43:48.433Z,54075.78
2023-01-13T07:46:14.827Z,54038.59
2023-01-13T07:48:41.130Z,54022.03
2023-01-13T07:51:08.666Z,54050.97
2023-01-13T07:53:35.089Z,54075.78
2023-01-13T07:56:01.689Z,54067.53
2023-01-13T07:58:28.461Z,54075.78
2023-01-13T08:00:55.054Z,54071.66
2023-01-13T08:03:21.882Z,54032.38
2023-01-13T08:05:48.306Z,54053.06
2023-01-13T08:08:14.743Z,54071.66
2023-01-13T08:10:41.051Z,54034.44
2023-01-13T08:13:17.412Z,54046.84
2023-01-13T08:15:44.196Z,54067.53
2023-01-13T08:18:10.690Z,54065.47
2023-01-13T08:20:37.113Z,54075.78
2023-01-13T08:23:05.577Z,54044.78
2023-01-13T08:25:33.247Z,54040.66
2023-01-13T08:28:00.302Z,54036.50
2023-01-13T08:30:27.421Z,54088.19
2023-01-13T08:32:53.731Z,54050.97
2023-01-13T08:35:20.412Z,54063.38
2023-01-13T08:37:47.016Z,54079.94
2023-01-13T08:40:13.687Z,54067.53
2023-01-13T08:42:40.187Z,54059.25
2023-01-13T08:45:07.032Z,54067.53
2023-01-13T08:47:33.455Z,54075.78
2023-01-13T08:49:59.781Z,54061.31
2023-01-13T08:52:26.076Z,54073.72
2023-01-13T08:54:52.526Z,54063.38
2023-01-13T08:57:21.849Z,54046.84
2023-01-13T08:59:48.317Z,54059.25
2023-01-13T09:02:24.082Z,54063.38
2023-01-13T09:04:50.832Z,54046.84
2023-01-13T09:07:17.450Z,54046.84
2023-01-13T09:09:43.762Z,54019.97
2023-01-13T09:12:32.360Z,54055.13
2023-01-13T09:15:01.169Z,54055.13
2023-01-13T09:17:27.512Z,54086.13
2023-01-13T09:19:53.816Z,54046.84
2023-01-13T09:22:20.364Z,54082.00
2023-01-13T09:24:46.754Z,54082.00
2023-01-13T09:27:13.950Z,54069.59
2023-01-13T09:29:40.306Z,54069.59
2023-01-13T09:32:06.788Z,54069.59
2023-01-13T09:34:51.896Z,54094.41
2023-01-13T09:37:18.201Z,54071.66
2023-01-13T09:39:45.046Z,54079.94
2023-01-13T09:42:48.677Z,54077.88
2023-01-13T09:45:21.842Z,54084.06
2023-01-13T09:47:48.088Z,54063.38
2023-01-13T09:50:14.353Z,54061.31
2023-01-13T09:52:41.026Z,54077.88
2023-01-13T09:55:17.716Z,54028.25
2023-01-13T09:57:43.998Z,54075.78
2023-01-13T10:00:14.043Z,54086.13
2023-01-13T10:03:01.784Z,54088.19
2023-01-13T10:05:32.373Z,54057.19
2023-01-13T10:07:59.762Z,54084.06
2023-01-13T10:10:34.097Z,54077.88
2023-01-13T10:13:15.668Z,54079.94
2023-01-13T10:15:43.382Z,54069.59
2023-01-13T10:18:13.449Z,54092.34
2023-01-13T10:20:49.675Z,54075.78
2023-01-13T10:23:34.744Z,54113.03
2023-01-13T10:26:20.956Z,54075.78
2023-01-13T10:28:56.950Z,54084.06
2023-01-13T10:31:23.652Z,54084.06
2023-01-13T10:33:57.808Z,54100.63
2023-01-13T10:36:24.161Z,54084.06
2023-01-13T10:38:50.716Z,54106.81
2023-01-13T10:41:17.843Z,54113.03
2023-01-13T10:43:44.925Z,54088.19
2023-01-13T10:46:12.410Z,54104.75
2023-01-13T10:48:39.863Z,54082.00
2023-01-13T10:51:26.444Z,54115.09
2023-01-13T10:54:11.515Z,54098.53
2023-01-13T10:56:38.472Z,54084.06
2023-01-13T10:59:16.926Z,54088.19
2023-01-13T11:01:43.968Z,54077.88
2023-01-13T11:04:24.872Z,54108.88
2023-01-13T11:06:51.212Z,54044.78
2023-01-13T11:09:19.211Z,54088.19
2023-01-13T11:11:46.900Z,54108.88
2023-01-13T11:14:33.035Z,54098.53
2023-01-13T11:17:19.573Z,54133.69
2023-01-13T11:19:50.760Z,54104.75
2023-01-13T11:22:17.589Z,54079.94
2023-01-13T11:24:44.725Z,54079.94
2023-01-13T11:27:17.265Z,54096.47
2023-01-13T11:29:53.151Z,54082.00
2023-01-13T11:32:20.226Z,54117.16
2023-01-13T11:34:54.523Z,54098.53
2023-01-13T11:37:47.234Z,54129.56
2023-01-13T11:40:18.945Z,54110.94
2023-01-13T11:42:46.763Z,54086.13
2023-01-13T11:45:31.782Z,54102.69
2023-01-13T11:47:58.633Z,54044.78
2023-01-13T11:50:40.743Z,54067.53
2023-01-13T11:53:19.255Z,54067.53
2023-01-13T11:55:48.593Z,54079.94
2023-01-13T11:58:14.989Z,54096.47
2023-01-13T12:00:41.385Z,54077.88
2023-01-13T12:03:24.712Z,54059.25
2023-01-13T12:05:59.677Z,54061.31
2023-01-13T12:08:38.332Z,54075.78
2023-01-13T12:11:25.022Z,54036.50
2023-01-13T12:14:06.628Z,54053.06
2023-01-13T12:16:33.231Z,54084.06
2023-01-13T12:18:59.499Z,54079.94
2023-01-13T12:21:26.736Z,54125.44
2023-01-13T12:23:59.495Z,54071.66
2023-01-13T12:26:26.039Z,54079.94
2023-01-13T12:29:11.480Z,54055.13
2023-01-13T12:31:38.168Z,54053.06
2023-01-13T12:34:19.816Z,54108.88
2023-01-13T12:36:46.169Z,54057.19
2023-01-13T12:39:18.463Z,54036.50
2023-01-13T12:42:03.391Z,54073.72
2023-01-13T12:44:29.700Z,54073.72
2023-01-13T12:46:56.911Z,54073.72
2023-01-13T12:49:24.383Z,54042.72
2023-01-13T12:51:50.628Z,54055.13
2023-01-13T12:54:35.643Z,54071.66
2023-01-13T12:57:02.068Z,54075.78
2023-01-13T12:59:28.344Z,54069.59
2023-01-13T13:02:18.964Z,54084.06
2023-01-13T13:04:51.148Z,54088.19
2023-01-13T13:07:19.432Z,54100.63
2023-01-13T13:09:47.946Z,54059.25
2023-01-13T13:12:51.897Z,54069.59
2023-01-13T13:15:21.050Z,54059.25
2023-01-13T13:18:00.361Z,54050.97
2023-01-13T13:20:45.553Z,54090.28
2023-01-13T13:23:27.818Z,54063.38
2023-01-13T13:26:02.333Z,54061.31
2023-01-13T13:28:33.189Z,54055.13
2023-01-13T13:31:12.510Z,54050.97
2023-01-13T13:33:41.846Z,54090.28
2023-01-13T13:36:12.624Z,54050.97
2023-01-13T13:39:13.078Z,54063.38
2023-01-13T13:42:00.493Z,54063.38
2023-01-13T13:44:45.927Z,54075.78
2023-01-13T13:47:12.244Z,54057.19
2023-01-13T13:49:46.704Z,54030.31
2023-01-13T13:52:14.743Z,54057.19
2023-01-13T13:54:41.718Z,54069.59
2023-01-13T13:57:21.610Z,54048.91
2023-01-13T13:59:54.098Z,54036.50
2023-01-13T14:02:23.767Z,54075.78
2023-01-13T14:04:50.200Z,54082.00
2023-01-13T14:07:18.318Z,54050.97
2023-01-13T14:09:45.563Z,54082.00
2023-01-13T14:12:16.251Z,54050.97
2023-01-13T14:14:43.050Z,54053.06
2023-01-13T14:17:19.304Z,54057.19
2023-01-13T14:19:48.727Z,54053.06
2023-01-13T14:22:16.182Z,54079.94
2023-01-13T14:24:46.630Z,54067.53
2023-01-13T14:27:17.162Z,54046.84
2023-01-13T14:29:43.659Z,54046.84
2023-01-13T14:32:10.898Z,54071.66
2023-01-13T14:34:37.674Z,54084.06
2023-01-13T14:37:04.025Z,54077.88
2023-01-13T14:39:34.772Z,54075.78
2023-01-13T14:42:01.065Z,54063.38
2023-01-13T14:44:34.829Z,54055.13
2023-01-13T14:47:03.013Z,54090.28
2023-01-13T14:49:29.354Z,54079.94
2023-01-13T14:52:03.357Z,54071.66
2023-01-13T14:54:49.499Z,54067.53
2023-01-13T14:57:27.435Z,54069.59
2023-01-13T15:00:12.630Z,54110.94
2023-01-13T15:02:48.161Z,54061.31
2023-01-13T15:05:17.661Z,54079.94
2023-01-13T15:07:50.954Z,54069.59
2023-01-13T15:10:17.603Z,54082.00
2023-01-13T15:12:43.983Z,54067.53
2023-01-13T15:15:20.002Z,54067.53
2023-01-13T15:17:49.209Z,54088.19
2023-01-13T15:20:15.938Z,54063.38
2023-01-13T15:22:42.265Z,54084.06
2023-01-13T15:25:09.574Z,54065.47
2023-01-13T15:27:36.151Z,54073.72
2023-01-13T15:30:03.344Z,54053.06
2023-01-13T15:32:29.648Z,54057.19
2023-01-13T15:34:55.946Z,54053.06
2023-01-13T15:37:23.554Z,54050.97
2023-01-13T15:39:49.871Z,54090.28
2023-01-13T15:42:34.966Z,54061.31
2023-01-13T15:45:20.070Z,54061.31
2023-01-13T15:47:46.558Z,54032.38
2023-01-13T15:50:16.261Z,54069.59
2023-01-13T15:52:42.678Z,54044.78
2023-01-13T15:55:09.096Z,54061.31
2023-01-13T15:57:35.900Z,54046.84
2023-01-13T16:00:08.042Z,54063.38
2023-01-13T16:02:34.362Z,54067.53
2023-01-13T16:05:00.737Z,54034.44
2023-01-13T16:07:27.110Z,54067.53
2023-01-13T16:09:53.625Z,54046.84
2023-01-13T16:12:19.985Z,54040.66
2023-01-13T16:14:46.397Z,54042.72
2023-01-13T16:17:14.349Z,54050.97
2023-01-13T16:19:40.631Z,54034.44
2023-01-13T16:22:06.926Z,54017.91
2023-01-13T16:24:33.209Z,54046.84
2023-01-13T16:26:59.574Z,54028.25
2023-01-13T16:29:25.926Z,54046.84
2023-01-13T16:31:52.315Z,54053.06
2023-01-13T16:34:18.961Z,54061.31
2023-01-13T16:36:46.272Z,54059.25
2023-01-13T16:39:20.293Z,54028.25
2023-01-13T16:41:46.604Z,54030.31
2023-01-13T16:44:12.938Z,54063.38
2023-01-13T16:46:39.269Z,54046.84
2023-01-13T16:49:05.888Z,54030.31
2023-01-13T16:51:33.206Z,54030.31
2023-01-13T16:53:59.601Z,54024.09
2023-01-13T16:56:35.594Z,54069.59
2023-01-13T16:59:08.953Z,54013.75
2023-01-13T17:01:37.185Z,54053.06
2023-01-13T17:04:04.065Z,54011.69
2023-01-13T17:06:32.613Z,54046.84
2023-01-13T17:09:06.515Z,54038.59
2023-01-13T17:11:32.904Z,54034.44
2023-01-13T17:13:59.273Z,54038.59
2023-01-13T17:16:26.331Z,54046.84
2023-01-13T17:18:52.975Z,54026.16
2023-01-13T17:21:19.271Z,54077.88
2023-01-13T17:23:45.744Z,54059.25
2023-01-13T17:26:25.190Z,54036.50
2023-01-13T17:28:51.525Z,54053.06
2023-01-13T17:31:17.856Z,54017.91
2023-01-13T17:33:44.191Z,54040.66
2023-01-13T17:36:10.488Z,54026.16
2023-01-13T17:38:36.758Z,54038.59
2023-01-13T17:41:04.145Z,54057.19
2023-01-13T17:43:31.081Z,54038.59
2023-01-13T17:45:57.880Z,54059.25
2023-01-13T17:48:24.631Z,54019.97
2023-01-13T17:50:54.136Z,54055.13
2023-01-13T17:53:20.683Z,54042.72
2023-01-13T17:55:53.677Z,54032.38
2023-01-13T17:58:20.517Z,54075.78
2023-01-13T18:00:46.812Z,54061.31
2023-01-13T18:03:13.098Z,54063.38
2023-01-13T18:05:39.606Z,54015.84
2023-01-13T18:08:06.020Z,54040.66
2023-01-13T18:10:32.625Z,54053.06
2023-01-13T18:12:58.960Z,54036.50
2023-01-13T18:15:26.151Z,54015.84
2023-01-13T18:17:52.510Z,54044.78
2023-01-13T18:20:37.593Z,54050.97
2023-01-13T18:23:22.786Z,54036.50
2023-01-13T18:26:07.418Z,54075.78
2023-01-13T18:28:33.784Z,54055.13
2023-01-13T18:31:00.137Z,54088.19
2023-01-13T18:33:26.513Z,54059.25
2023-01-13T18:35:52.837Z,54034.44
2023-01-13T18:38:26.387Z,54036.50
2023-01-13T18:40:52.681Z,54055.13
2023-01-13T18:43:19.035Z,54038.59
2023-01-13T18:45:49.283Z,54042.72
2023-01-13T18:48:16.206Z,54084.06
2023-01-13T18:50:42.470Z,54032.38
2023-01-13T18:53:08.757Z,54059.25
2023-01-13T18:55:35.133Z,54032.38
2023-01-13T18:58:01.496Z,54059.25
2023-01-13T19:00:27.932Z,54044.78
2023-01-13T19:05:32.269Z,54022.03
2023-01-13T19:07:58.587Z,54038.59
2023-01-13T19:10:24.917Z,54046.84
2023-01-13T19:12:51.204Z,54050.97
2023-01-13T19:15:17.582Z,54048.91
2023-01-13T19:17:45.054Z,54053.06
2023-01-13T19:20:11.559Z,54057.19
2023-01-13T19:22:37.916Z,54055.13
2023-01-13T19:25:04.734Z,54042.72
2023-01-13T19:27:31.124Z,54019.97
2023-01-13T19:29:58.598Z,54024.09
2023-01-13T19:32:24.916Z,54061.31
2023-01-13T19:34:51.610Z,54053.06
2023-01-13T19:37:18.227Z,54075.78
2023-01-13T19:39:44.653Z,54048.91
2023-01-13T19:42:30.223Z,54069.59
2023-01-13T19:45:15.202Z,54030.31
2023-01-13T19:47:41.671Z,54022.03
2023-01-13T19:50:08.644Z,54040.66
2023-01-13T19:52:35.061Z,53995.16
2023-01-13T19:55:01.909Z,54061.31
2023-01-13T19:57:28.278Z,54038.59
2023-01-13T19:59:54.564Z,54019.97
2023-01-13T20:02:27.893Z,54044.78
2023-01-13T20:05:01.687Z,54044.78
2023-01-13T20:07:28.723Z,54036.50
2023-01-13T20:09:57.914Z,54011.69
2023-01-13T20:12:24.978Z,54034.44
2023-01-13T20:14:51.371Z,54048.91
2023-01-13T20:17:18.563Z,54026.16
2023-01-13T20:19:45.039Z,54040.66
2023-01-13T20:22:11.514Z,54024.09
2023-01-13T20:24:37.820Z,54030.31
2023-01-13T20:27:04.587Z,54044.78
2023-01-13T20:29:31.152Z,54019.97
2023-01-13T20:31:57.477Z,53999.28
2023-01-13T20:34:24.126Z,54009.63
2023-01-13T20:36:50.815Z,54007.56
2023-01-13T20:39:20.972Z,54026.16
2023-01-13T20:42:05.776Z,53982.75
2023-01-13T20:44:32.064Z,54036.50
2023-01-13T20:46:59.589Z,54011.69
2023-01-13T20:49:26.426Z,54024.09
2023-01-13T20:51:53.529Z,54019.97
2023-01-13T20:54:20.188Z,54030.31
2023-01-13T20:56:46.512Z,54022.03
2023-01-13T20:59:12.835Z,54024.09
2023-01-13T21:01:39.348Z,54040.66
2023-01-13T21:04:06.666Z,54005.50
2023-01-13T21:06:33.235Z,54036.50
2023-01-13T21:08:59.686Z,54030.31
2023-01-13T21:11:45.571Z,54038.59
2023-01-13T21:14:40.771Z,54063.38
2023-01-13T21:17:07.821Z,53997.22
2023-01-13T21:19:34.187Z,54032.38
2023-01-13T21:22:00.535Z,54013.75
2023-01-13T21:24:26.937Z,54030.31
2023-01-13T21:26:59.387Z,54001.34
2023-01-13T21:29:25.758Z,54001.34
2023-01-13T21:31:53.951Z,54032.38
2023-01-13T21:34:20.240Z,53980.69
2023-01-13T21:36:46.536Z,54024.09
2023-01-13T21:39:14.565Z,54036.50
2023-01-13T21:41:59.690Z,54028.25
2023-01-13T21:44:44.820Z,54017.91
2023-01-13T21:47:41.444Z,54022.03
2023-01-13T21:50:09.338Z,53984.81
2023-01-13T21:52:35.741Z,54030.31
2023-01-13T21:55:17.184Z,54028.25
2023-01-13T21:57:50.095Z,54026.16
2023-01-13T22:00:17.121Z,54042.72
2023-01-13T22:02:43.706Z,54022.03
2023-01-13T22:05:10.461Z,53997.22
2023-01-13T22:07:37.169Z,54013.75
2023-01-13T22:10:03.804Z,54013.75
2023-01-13T22:12:30.178Z,54034.44
2023-01-13T22:14:56.679Z,54030.31
2023-01-13T22:17:23.990Z,54034.44
2023-01-13T22:19:52.657Z,54038.59
2023-01-13T22:22:19.263Z,54032.38
2023-01-13T22:24:47.178Z,54030.31
2023-01-13T22:27:14.429Z,54050.97
2023-01-13T22:29:40.777Z,54022.03
2023-01-13T22:32:07.141Z,54055.13
2023-01-13T22:34:33.497Z,54042.72
2023-01-13T22:36:59.911Z,54034.44
2023-01-13T22:39:26.399Z,54038.59
2023-01-13T22:41:52.702Z,54055.13
2023-01-13T22:44:19.269Z,54024.09
2023-01-13T22:46:45.653Z,54046.84
2023-01-13T22:49:12.477Z,53997.22
2023-01-13T22:51:39.146Z,54030.31
2023-01-13T22:54:05.487Z,54032.38
2023-01-13T22:56:31.916Z,54040.66
2023-01-13T22:58:59.065Z,54030.31
2023-01-13T23:01:26.352Z,54038.59
2023-01-13T23:03:52.710Z,54030.31
2023-01-13T23:06:19.307Z,54046.84
2023-01-13T23:08:45.669Z,54024.09
2023-01-13T23:11:13.447Z,54024.09
2023-01-13T23:13:39.772Z,54022.03
2023-01-13T23:16:07.399Z,54030.31
2023-01-13T23:18:33.859Z,54030.31
2023-01-13T23:21:07.083Z,54009.63
2023-01-13T23:23:33.533Z,54022.03
2023-01-13T23:26:00.185Z,54028.25
2023-01-13T23:28:26.553Z,54026.16
2023-01-13T23:30:53.620Z,54038.59
2023-01-13T23:33:20.113Z,54030.31
2023-01-13T23:36:00.125Z,54024.09
2023-01-13T23:38:26.744Z,54046.84
2023-01-13T23:40:53.087Z,54022.03
2023-01-13T23:43:19.425Z,54038.59
2023-01-13T23:45:45.844Z,54028.25
2023-01-13T23:48:14.068Z,53997.22
2023-01-13T23:50:40.762Z,54007.56
2023-01-13T23:53:07.189Z,54024.09
2023-01-13T23:55:33.518Z,54040.66
2023-01-13T23:57:59.847Z,54022.03
